CheckWX is a tool to help pilots better visualize weather data.  It is not intended as a substitute for an official pre-flight weather briefing.

14:22:50 UTC

KLCK METAR
Rickenbacker International Airport
Columbus, Ohio, USA
Current

48 mins ago

KLCK 161335Z AUTO 16005KT 10SM SCT050 OVC100 23/21 A3009 RMK AO2 T02330214
Observed
Jul-16 @ 13:35 UTC
Wind
  • 160° at 5 KTS
Visibility
10 SM
Flight Rules
VFR
Cloud Levels
  • Scattered at 5,000' AGL
  • Overcast at 10,000' AGL
Temperature
23°C / 73°F
Dewpoint
21°C / 70°F
Humidity
89%
Altimeter
30.09" Hg
Pressure
1018.92 hPa
Previous

1 hour ago

KLCK 161315Z AUTO 16004KT 10SM BKN050 OVC110 23/21 A3009 RMK AO2 T02300213
Observed
Jul-16 @ 13:15 UTC
Wind
  • 160° at 4 KTS
Visibility
10 SM
Flight Rules
VFR
Cloud Levels
  • Broken at 5,000' AGL
  • Overcast at 11,000' AGL
Temperature
23°C / 73°F
Dewpoint
21°C / 70°F
Humidity
89%
Altimeter
30.09" Hg
Pressure
1018.92 hPa
Previous

1 hour ago

KLCK 161255Z AUTO 14004KT 10SM SCT055 OVC110 23/21 A3009 RMK AO2 T02290213
Observed
Jul-16 @ 12:55 UTC
Wind
  • 140° at 4 KTS
Visibility
10 SM
Flight Rules
VFR
Cloud Levels
  • Scattered at 5,500' AGL
  • Overcast at 11,000' AGL
Temperature
23°C / 73°F
Dewpoint
21°C / 70°F
Humidity
89%
Altimeter
30.09" Hg
Pressure
1018.92 hPa